Time;durP1;ratioP1;P1;durP2;ratioP2;P2;SDS_P1;SDS_P2;PMS_P1;PMS_P2;Temp;Humidity;BMP_temperature;BMP_pressure;BME280_temperature;BME280_humidity;BME280_pressure;Samples;Min_cycle;Max_cycle;Signal;HPM_P1;HPM_P2
2023/10/05 00:02:21;;;;;;;;;;;11.90;86.00;;;;;;5012306;28;19933;-72
2023/10/05 00:04:55;;;;;;;;;;;11.80;86.10;;;;;;5005694;28;19936;-71
2023/10/05 00:07:32;;;;;;;;;;;11.80;86.20;;;;;;5020234;28;19929;-74
2023/10/05 00:10:06;;;;;;;;;;;11.80;86.00;;;;;;5016130;28;19932;-72
2023/10/05 00:12:40;;;;;;;;;;;11.70;86.20;;;;;;5018270;28;19935;-73
2023/10/05 00:15:14;;;;;;;;;;;11.70;86.10;;;;;;5013570;28;19944;-73
2023/10/05 00:17:42;;;;;;;;;;;11.70;86.00;;;;;;5015730;28;19944;-74
2023/10/05 00:20:24;;;;;;;;;;;11.70;86.10;;;;;;5002948;28;19956;-73
2023/10/05 00:22:58;;;;;;;;;;;11.70;85.90;;;;;;4989978;28;19925;-74
2023/10/05 00:25:39;;;;;;;;;;;11.70;85.90;;;;;;5020618;28;20281;-73
2023/10/05 00:28:13;;;;;;;;;;;11.70;85.90;;;;;;5010691;28;19925;-73
2023/10/05 00:30:50;;;;;;;;;;;11.60;85.90;;;;;;5019998;28;19937;-72
2023/10/05 00:33:24;;;;;;;;;;;11.60;85.90;;;;;;5019997;28;19925;-62
2023/10/05 00:35:58;;;;;;;;;;;11.60;86.00;;;;;;5019429;28;19943;-63
2023/10/05 00:38:31;;;;;;;;;;;11.60;86.20;;;;;;5014638;28;19933;-62
2023/10/05 00:41:08;;;;;;;;;;;11.60;86.10;;;;;;5019112;28;19960;-63
2023/10/05 00:43:41;;;;;;;;;;;11.60;86.00;;;;;;5016838;28;19936;-65
2023/10/05 00:46:14;;;;;;;;;;;11.70;85.90;;;;;;5018145;28;20007;-62
2023/10/05 00:49:00;;;;;;;;;;;11.70;85.60;;;;;;5016946;28;20028;-65
2023/10/05 00:51:34;;;;;;;;;;;11.60;85.80;;;;;;5018549;28;20391;-62
2023/10/05 00:54:11;;;;;;;;;;;11.60;85.90;;;;;;5014248;28;19925;-63
2023/10/05 00:56:45;;;;;;;;;;;11.60;86.00;;;;;;5016573;28;19995;-63
2023/10/05 00:59:20;;;;;;;;;;;11.60;86.00;;;;;;5012167;28;19957;-64
2023/10/05 01:04:55;;;;;;;;;;;11.50;86.20;;;;;;5014700;28;19926;-62
2023/10/05 01:07:43;;;;;;;;;;;11.40;86.30;;;;;;5021305;28;20343;-62
2023/10/05 01:10:22;;;;;;;;;;;11.40;86.10;;;;;;5011773;28;19932;-63
2023/10/05 01:12:56;;;;;;;;;;;11.50;86.10;;;;;;5017783;28;20460;-66
2023/10/05 01:15:30;;;;;;;;;;;11.60;86.00;;;;;;5006989;28;19936;-64
2023/10/05 01:18:04;;;;;;;;;;;11.60;85.70;;;;;;4996012;28;20001;-63
2023/10/05 01:20:36;;;;;;;;;;;11.60;85.70;;;;;;4995160;28;19937;-63
2023/10/05 01:23:10;;;;;;;;;;;11.60;85.70;;;;;;4981800;28;20015;-64
2023/10/05 01:25:43;;;;;;;;;;;11.60;85.90;;;;;;4997816;28;19926;-62
2023/10/05 01:28:17;;;;;;;;;;;11.50;86.00;;;;;;4997303;28;19965;-62
2023/10/05 01:30:50;;;;;;;;;;;11.50;85.90;;;;;;4994775;28;19937;-63
2023/10/05 01:33:25;;;;;;;;;;;11.40;86.10;;;;;;4997995;28;19930;-62
2023/10/05 01:35:59;;;;;;;;;;;11.40;86.10;;;;;;5013531;28;19953;-62
2023/10/05 01:38:37;;;;;;;;;;;11.40;86.20;;;;;;4996770;28;19944;-63
2023/10/05 01:41:11;;;;;;;;;;;11.40;86.10;;;;;;4991890;28;20311;-62
2023/10/05 01:43:44;;;;;;;;;;;11.40;86.10;;;;;;5011426;28;19951;-67
2023/10/05 01:46:17;;;;;;;;;;;11.40;86.10;;;;;;5013194;28;19965;-67
2023/10/05 01:48:51;;;;;;;;;;;11.40;86.00;;;;;;5018205;28;19936;-68
2023/10/05 01:51:26;;;;;;;;;;;11.40;86.10;;;;;;4995459;28;19934;-68
2023/10/05 01:54:04;;;;;;;;;;;11.30;86.10;;;;;;4996697;28;19948;-67
2023/10/05 01:56:39;;;;;;;;;;;11.30;86.00;;;;;;4990330;28;20838;-69
2023/10/05 01:59:34;;;;;;;;;;;11.30;86.00;;;;;;4979042;28;20335;-67
2023/10/05 02:02:09;;;;;;;;;;;11.30;85.80;;;;;;5005661;28;19965;-68
2023/10/05 02:04:44;;;;;;;;;;;11.40;85.40;;;;;;4996645;28;19953;-67
2023/10/05 02:07:23;;;;;;;;;;;11.40;85.30;;;;;;5019732;28;19925;-67
2023/10/05 02:10:00;;;;;;;;;;;11.40;85.10;;;;;;4989213;28;19929;-69
2023/10/05 02:12:33;;;;;;;;;;;11.30;85.50;;;;;;5020161;28;19925;-68
2023/10/05 02:15:01;;;;;;;;;;;11.30;85.40;;;;;;5021456;28;20008;-67
2023/10/05 02:17:40;;;;;;;;;;;11.30;85.60;;;;;;5033511;28;20299;-68
2023/10/05 02:20:38;;;;;;;;;;;11.20;85.50;;;;;;5018011;28;19952;-67
2023/10/05 02:23:24;;;;;;;;;;;11.20;85.80;;;;;;5019657;28;20012;-67
2023/10/05 02:26:09;;;;;;;;;;;11.20;85.80;;;;;;5014980;28;20439;-68
2023/10/05 02:28:45;;;;;;;;;;;11.30;85.70;;;;;;5034543;28;20009;-67
2023/10/05 02:31:20;;;;;;;;;;;11.20;85.70;;;;;;5017927;28;19984;-67
2023/10/05 02:33:56;;;;;;;;;;;11.20;85.90;;;;;;5034206;28;19929;-68
2023/10/05 02:36:30;;;;;;;;;;;11.10;85.80;;;;;;5021428;28;19934;-68
2023/10/05 02:39:03;;;;;;;;;;;11.10;85.70;;;;;;5019230;28;19944;-66
2023/10/05 02:41:39;;;;;;;;;;;11.20;85.90;;;;;;5030240;28;19961;-67
2023/10/05 02:44:19;;;;;;;;;;;11.20;85.80;;;;;;4998870;28;19930;-68
2023/10/05 02:46:53;;;;;;;;;;;11.10;85.90;;;;;;5001275;28;20008;-68
2023/10/05 02:49:26;;;;;;;;;;;11.10;86.00;;;;;;4999817;28;19930;-66
2023/10/05 02:52:01;;;;;;;;;;;11.10;85.90;;;;;;5000501;28;20374;-74
2023/10/05 02:54:36;;;;;;;;;;;11.10;85.90;;;;;;4986068;28;20356;-74
2023/10/05 02:57:13;;;;;;;;;;;11.00;86.00;;;;;;5014676;28;20008;-73
2023/10/05 02:59:46;;;;;;;;;;;11.00;86.20;;;;;;5013551;28;19957;-75
2023/10/05 03:02:16;;;;;;;;;;;11.00;86.10;;;;;;4993580;28;20408;-72
2023/10/05 03:04:58;;;;;;;;;;;11.10;85.90;;;;;;4997955;28;20408;-75
2023/10/05 03:07:31;;;;;;;;;;;11.10;85.80;;;;;;4998381;28;19925;-75
2023/10/05 03:10:05;;;;;;;;;;;11.10;85.90;;;;;;5000887;28;19973;-74
2023/10/05 03:12:39;;;;;;;;;;;;;;;;;;4995675;28;19929;-73
2023/10/05 03:15:12;;;;;;;;;;;11.10;85.90;;;;;;4987616;28;20032;-75
2023/10/05 03:17:48;;;;;;;;;;;11.10;86.00;;;;;;4995724;28;20012;-74
2023/10/05 03:20:22;;;;;;;;;;;11.10;85.80;;;;;;5017692;28;19928;-74
2023/10/05 03:22:55;;;;;;;;;;;11.00;85.70;;;;;;5020147;28;19925;-72
2023/10/05 03:25:28;;;;;;;;;;;11.10;85.50;;;;;;4997539;28;19933;-74
2023/10/05 03:28:02;;;;;;;;;;;11.00;85.50;;;;;;5025529;28;19933;-73
2023/10/05 03:30:36;;;;;;;;;;;11.10;85.40;;;;;;5016109;28;19933;-74
2023/10/05 03:33:12;;;;;;;;;;;11.00;85.30;;;;;;5002197;28;19925;-73
2023/10/05 03:35:45;;;;;;;;;;;10.90;85.30;;;;;;4990318;28;20020;-75
2023/10/05 03:38:22;;;;;;;;;;;11.00;85.20;;;;;;4995706;28;20293;-74
2023/10/05 03:40:59;;;;;;;;;;;11.00;85.00;;;;;;5009074;28;20020;-73
2023/10/05 03:43:33;;;;;;;;;;;11.00;85.30;;;;;;5010355;28;19929;-78
2023/10/05 03:46:08;;;;;;;;;;;11.10;85.80;;;;;;5015912;28;20015;-69
2023/10/05 03:48:43;;;;;;;;;;;11.10;85.70;;;;;;5009764;28;19933;-69
2023/10/05 03:51:16;;;;;;;;;;;11.10;85.30;;;;;;5015848;28;19933;-70
2023/10/05 03:53:52;;;;;;;;;;;11.00;85.40;;;;;;5019045;28;19934;-71
2023/10/05 03:56:27;;;;;;;;;;;10.90;85.40;;;;;;5015593;28;19929;-70
2023/10/05 03:59:00;;;;;;;;;;;10.90;85.50;;;;;;5015217;28;19940;-70
2023/10/05 04:01:35;;;;;;;;;;;10.80;85.50;;;;;;5015878;28;19949;-69
2023/10/05 04:04:07;;;;;;;;;;;10.90;85.40;;;;;;5009922;28;20027;-63
2023/10/05 04:06:51;;;;;;;;;;;10.80;85.50;;;;;;5018631;28;20266;-63
2023/10/05 04:09:28;;;;;;;;;;;10.80;85.50;;;;;;5014847;28;20009;-64
2023/10/05 04:12:03;;;;;;;;;;;10.80;85.60;;;;;;5009916;28;19929;-62
2023/10/05 04:14:38;;;;;;;;;;;10.90;85.50;;;;;;5011214;28;19936;-63
2023/10/05 04:17:13;;;;;;;;;;;10.90;85.30;;;;;;5006743;28;19948;-63
2023/10/05 04:19:47;;;;;;;;;;;10.80;85.30;;;;;;4997608;28;19969;-63
2023/10/05 04:22:20;;;;;;;;;;;10.90;85.20;;;;;;4987056;28;19926;-63
2023/10/05 04:24:53;;;;;;;;;;;10.80;85.10;;;;;;5014096;28;19926;-62
2023/10/05 04:27:26;;;;;;;;;;;10.80;85.00;;;;;;5008202;28;20372;-64
2023/10/05 04:29:59;;;;;;;;;;;10.80;84.90;;;;;;5007880;28;19929;-63
2023/10/05 04:32:34;;;;;;;;;;;10.70;85.00;;;;;;5029974;28;19939;-62
2023/10/05 04:35:20;;;;;;;;;;;10.70;84.90;;;;;;5016793;28;20337;-64
2023/10/05 04:37:54;;;;;;;;;;;10.70;85.10;;;;;;5007097;28;20382;-63
2023/10/05 04:40:27;;;;;;;;;;;10.70;85.20;;;;;;5003676;28;20475;-63
2023/10/05 04:43:04;;;;;;;;;;;10.70;84.90;;;;;;4999967;28;19925;-63
2023/10/05 04:45:42;;;;;;;;;;;10.60;85.00;;;;;;4995754;28;20016;-63
2023/10/05 04:48:18;;;;;;;;;;;10.70;84.90;;;;;;4992137;28;20004;-63
2023/10/05 04:50:51;;;;;;;;;;;10.60;85.10;;;;;;4992985;28;19930;-62
2023/10/05 04:53:27;;;;;;;;;;;10.60;85.20;;;;;;5014194;28;19941;-63
2023/10/05 04:56:12;;;;;;;;;;;10.60;85.40;;;;;;5014472;28;19925;-63
2023/10/05 04:59:18;;;;;;;;;;;10.60;85.20;;;;;;5015031;28;19929;-63
2023/10/05 05:01:56;;;;;;;;;;;10.60;85.10;;;;;;5013313;28;20436;-62
2023/10/05 05:04:52;;;;;;;;;;;10.60;85.10;;;;;;5017117;28;19929;-63
2023/10/05 05:07:25;;;;;;;;;;;10.60;85.20;;;;;;5014640;28;19933;-62
2023/10/05 05:09:59;;;;;;;;;;;10.60;85.20;;;;;;5014243;28;19941;-63
2023/10/05 05:12:35;;;;;;;;;;;10.60;85.30;;;;;;5015265;28;19969;-67
2023/10/05 05:15:09;;;;;;;;;;;10.50;85.40;;;;;;5012828;28;19929;-67
2023/10/05 05:17:43;;;;;;;;;;;10.60;85.40;;;;;;5014666;28;19926;-67
2023/10/05 05:20:17;;;;;;;;;;;10.60;85.50;;;;;;5014886;28;20393;-68
2023/10/05 05:22:52;;;;;;;;;;;10.60;85.50;;;;;;5018557;28;19932;-68
2023/10/05 05:25:25;;;;;;;;;;;10.50;85.50;;;;;;5017530;28;20020;-67
2023/10/05 05:28:01;;;;;;;;;;;10.50;85.70;;;;;;5017823;28;19932;-69
2023/10/05 05:30:36;;;;;;;;;;;10.50;85.80;;;;;;5008451;28;19929;-67
2023/10/05 05:33:10;;;;;;;;;;;10.50;85.80;;;;;;5006277;28;19925;-67
2023/10/05 05:35:46;;;;;;;;;;;10.50;85.80;;;;;;5001576;28;19980;-68
2023/10/05 05:38:19;;;;;;;;;;;10.50;85.80;;;;;;4998235;28;20321;-68
2023/10/05 05:40:53;;;;;;;;;;;10.50;85.80;;;;;;4995918;28;19968;-68
2023/10/05 05:43:29;;;;;;;;;;;10.40;85.90;;;;;;5007587;28;20304;-67
2023/10/05 05:46:02;;;;;;;;;;;10.40;86.10;;;;;;5020965;28;19936;-67
2023/10/05 05:48:31;;;;;;;;;;;10.40;86.20;;;;;;5021391;28;19939;-68
2023/10/05 05:51:13;;;;;;;;;;;10.40;86.20;;;;;;5019148;28;19929;-67
2023/10/05 05:53:46;;;;;;;;;;;10.50;86.20;;;;;;5021961;28;19965;-68
2023/10/05 05:56:19;;;;;;;;;;;10.50;86.00;;;;;;5021747;28;19936;-67
2023/10/05 05:58:53;;;;;;;;;;;10.50;86.00;;;;;;5016005;28;20003;-68
2023/10/05 06:01:26;;;;;;;;;;;10.50;86.00;;;;;;5013191;28;20365;-67
2023/10/05 06:04:06;;;;;;;;;;;10.50;86.10;;;;;;5020091;28;20396;-67
2023/10/05 06:06:41;;;;;;;;;;;10.50;86.20;;;;;;5018570;28;20034;-67
2023/10/05 06:09:19;;;;;;;;;;;10.50;86.30;;;;;;5011144;28;20036;-68
2023/10/05 06:11:53;;;;;;;;;;;10.60;86.30;;;;;;5001143;28;19936;-67
2023/10/05 06:14:27;;;;;;;;;;;10.50;86.20;;;;;;5002113;28;19930;-67
2023/10/05 06:17:00;;;;;;;;;;;10.50;86.30;;;;;;4998523;28;19948;-66
2023/10/05 06:19:35;;;;;;;;;;;10.50;86.50;;;;;;5001911;28;19952;-67
2023/10/05 06:22:10;;;;;;;;;;;10.60;86.60;;;;;;4997471;28;19972;-73
2023/10/05 06:24:44;;;;;;;;;;;10.50;86.60;;;;;;5000339;28;19964;-70
2023/10/05 06:27:17;;;;;;;;;;;10.60;86.30;;;;;;5009492;28;19929;-70
2023/10/05 06:29:50;;;;;;;;;;;10.60;86.40;;;;;;5008716;28;19926;-70
2023/10/05 06:32:23;;;;;;;;;;;10.70;86.50;;;;;;4994447;28;20009;-70
2023/10/05 06:34:56;;;;;;;;;;;10.70;86.50;;;;;;5012701;28;19925;-69
2023/10/05 06:37:30;;;;;;;;;;;10.70;86.40;;;;;;5010942;28;19925;-70
2023/10/05 06:40:09;;;;;;;;;;;10.80;86.40;;;;;;5017376;28;19937;-71
2023/10/05 06:42:43;;;;;;;;;;;10.90;86.50;;;;;;4994587;28;19927;-70
2023/10/05 06:45:17;;;;;;;;;;;10.90;86.20;;;;;;5017056;28;19968;-72
2023/10/05 06:47:50;;;;;;;;;;;10.90;86.10;;;;;;5021373;28;19932;-70
2023/10/05 06:50:24;;;;;;;;;;;10.90;86.00;;;;;;5022056;28;19983;-70
2023/10/05 06:52:59;;;;;;;;;;;10.90;86.00;;;;;;5011106;28;19925;-70
2023/10/05 06:55:32;;;;;;;;;;;11.00;85.90;;;;;;5020423;28;19933;-70
2023/10/05 06:58:05;;;;;;;;;;;11.00;85.90;;;;;;5021736;28;19929;-70
2023/10/05 07:00:38;;;;;;;;;;;11.10;85.60;;;;;;5017872;28;19932;-70
2023/10/05 07:03:11;;;;;;;;;;;11.10;85.80;;;;;;5003479;28;19933;-72
2023/10/05 07:05:44;;;;;;;;;;;11.20;85.70;;;;;;5018181;28;19926;-69
2023/10/05 07:08:18;;;;;;;;;;;11.20;85.50;;;;;;5015833;28;19986;-70
2023/10/05 07:10:52;;;;;;;;;;;11.30;85.30;;;;;;5010778;28;20033;-70
2023/10/05 07:13:25;;;;;;;;;;;11.30;85.50;;;;;;5016805;28;19936;-71
2023/10/05 07:15:58;;;;;;;;;;;11.30;85.30;;;;;;5008959;28;19931;-70
2023/10/05 07:18:25;;;;;;;;;;;11.20;85.40;;;;;;5012013;28;19971;-72
2023/10/05 07:20:58;;;;;;;;;;;11.20;85.40;;;;;;5014331;28;19929;-70
2023/10/05 07:23:33;;;;;;;;;;;11.30;85.50;;;;;;5000290;28;19926;-70
2023/10/05 07:26:07;;;;;;;;;;;11.30;85.30;;;;;;4996556;28;19925;-69
2023/10/05 07:28:41;;;;;;;;;;;11.20;85.30;;;;;;5002104;28;19925;-70
2023/10/05 07:31:14;;;;;;;;;;;11.30;85.30;;;;;;5000558;28;19984;-71
2023/10/05 07:33:47;;;;;;;;;;;11.40;85.20;;;;;;4994104;28;19936;-63
2023/10/05 07:36:20;;;;;;;;;;;11.40;85.00;;;;;;5006660;28;19929;-62
2023/10/05 07:38:54;;;;;;;;;;;11.50;85.20;;;;;;5000355;28;19933;-65
2023/10/05 07:41:29;;;;;;;;;;;11.50;85.20;;;;;;5018284;28;20357;-62
2023/10/05 07:44:03;;;;;;;;;;;11.50;85.20;;;;;;4996426;28;20305;-63
2023/10/05 07:46:38;;;;;;;;;;;11.60;85.00;;;;;;5018192;28;19940;-63
2023/10/05 07:49:11;;;;;;;;;;;11.60;85.10;;;;;;5018566;28;19929;-62
2023/10/05 07:51:44;;;;;;;;;;;11.70;85.20;;;;;;5012081;28;19929;-62
2023/10/05 07:54:18;;;;;;;;;;;11.60;85.10;;;;;;5012136;28;19925;-62
2023/10/05 07:56:52;;;;;;;;;;;11.70;85.10;;;;;;4997838;28;19929;-61
2023/10/05 07:59:25;;;;;;;;;;;11.80;85.20;;;;;;4998307;28;19933;-63
2023/10/05 08:01:59;;;;;;;;;;;11.70;85.10;;;;;;4999119;28;20028;-63
2023/10/05 08:04:33;;;;;;;;;;;11.90;85.30;;;;;;5001865;28;19929;-61
2023/10/05 08:07:07;;;;;;;;;;;11.90;85.00;;;;;;5015439;28;20053;-61
2023/10/05 08:09:42;;;;;;;;;;;12.00;85.10;;;;;;4993140;28;19925;-62
2023/10/05 08:12:15;;;;;;;;;;;12.00;84.90;;;;;;5005110;28;20300;-62
2023/10/05 08:14:48;;;;;;;;;;;12.10;84.90;;;;;;5015100;28;19933;-62
2023/10/05 08:17:21;;;;;;;;;;;12.20;84.80;;;;;;5014190;28;20015;-63
2023/10/05 08:19:54;;;;;;;;;;;12.20;85.00;;;;;;5019048;28;19926;-62
2023/10/05 08:22:28;;;;;;;;;;;12.20;85.00;;;;;;5012084;28;20016;-62
2023/10/05 08:25:10;;;;;;;;;;;12.30;84.90;;;;;;5003147;28;19925;-61
2023/10/05 08:27:43;;;;;;;;;;;12.40;84.90;;;;;;5016458;28;19932;-62
2023/10/05 08:30:16;;;;;;;;;;;12.40;84.80;;;;;;5011637;28;19925;-62
2023/10/05 08:32:49;;;;;;;;;;;12.60;84.80;;;;;;5012612;28;20411;-62
2023/10/05 08:35:26;;;;;;;;;;;12.60;84.90;;;;;;5013876;28;19925;-61
2023/10/05 08:37:59;;;;;;;;;;;12.70;84.70;;;;;;5011862;28;19925;-62
2023/10/05 08:40:38;;;;;;;;;;;12.70;84.50;;;;;;5014444;28;19960;-61
2023/10/05 08:43:26;;;;;;;;;;;12.90;84.70;;;;;;4993125;28;24711;-75
2023/10/05 08:46:07;;;;;;;;;;;13.00;84.50;;;;;;5009708;28;19933;-74
2023/10/05 08:48:41;;;;;;;;;;;13.10;84.50;;;;;;4997698;28;20023;-75
2023/10/05 08:51:15;;;;;;;;;;;13.10;84.30;;;;;;4994448;28;20480;-75
2023/10/05 08:53:54;;;;;;;;;;;13.10;84.30;;;;;;5007983;28;19964;-74
2023/10/05 08:56:31;;;;;;;;;;;13.30;84.30;;;;;;4999153;28;20013;-74
2023/10/05 08:59:07;;;;;;;;;;;13.30;84.10;;;;;;5007913;28;19929;-73
2023/10/05 09:01:34;;;;;;;;;;;13.40;84.00;;;;;;5013004;28;19925;-76
2023/10/05 09:04:23;;;;;;;;;;;13.40;84.00;;;;;;5020560;28;20019;-76
2023/10/05 09:06:58;;;;;;;;;;;13.60;83.80;;;;;;5016215;28;20793;-74
2023/10/05 09:09:52;;;;;;;;;;;13.70;83.70;;;;;;5008410;28;19929;-75
2023/10/05 09:12:34;;;;;;;;;;;13.70;83.90;;;;;;5018166;28;20372;-75
2023/10/05 09:15:21;;;;;;;;;;;13.90;83.60;;;;;;5010069;28;19930;-74
2023/10/05 09:17:58;;;;;;;;;;;14.00;83.40;;;;;;5014591;28;20446;-74
2023/10/05 09:20:33;;;;;;;;;;;14.10;83.30;;;;;;5005821;28;20428;-74
2023/10/05 09:23:07;;;;;;;;;;;14.20;83.60;;;;;;4996164;28;19930;-75
2023/10/05 09:25:35;;;;;;;;;;;14.30;83.60;;;;;;4992440;28;19977;-75
2023/10/05 09:28:13;;;;;;;;;;;14.40;83.80;;;;;;4995915;28;20416;-75
2023/10/05 09:30:55;;;;;;;;;;;14.40;83.60;;;;;;4990965;28;20374;-75
2023/10/05 09:33:34;;;;;;;;;;;14.50;83.40;;;;;;5000051;28;19965;-74
2023/10/05 09:36:16;;;;;;;;;;;14.60;83.30;;;;;;4992220;28;19932;-74
2023/10/05 09:38:51;;;;;;;;;;;14.70;83.00;;;;;;4999177;28;19980;-74
2023/10/05 09:41:26;;;;;;;;;;;14.80;83.10;;;;;;4997496;28;19933;-75
2023/10/05 09:44:01;;;;;;;;;;;15.00;82.80;;;;;;4991464;28;20397;-74
2023/10/05 09:46:35;;;;;;;;;;;15.10;82.50;;;;;;5011439;28;19932;-75
2023/10/05 09:49:02;;;;;;;;;;;15.10;82.20;;;;;;5011035;28;19992;-73
2023/10/05 09:51:36;;;;;;;;;;;15.20;81.90;;;;;;5008901;28;19933;-74
2023/10/05 09:54:10;;;;;;;;;;;15.30;81.80;;;;;;5010277;28;19956;-65
2023/10/05 09:56:43;;;;;;;;;;;15.40;81.50;;;;;;5017300;28;19926;-66
2023/10/05 09:59:15;;;;;;;;;;;15.40;81.40;;;;;;5004356;28;19926;-67
2023/10/05 10:01:50;;;;;;;;;;;15.50;81.10;;;;;;4991298;28;19941;-65
2023/10/05 10:04:35;;;;;;;;;;;15.60;81.10;;;;;;5008873;28;20420;-66
2023/10/05 10:07:15;;;;;;;;;;;15.60;80.90;;;;;;5013471;28;20056;-67
2023/10/05 10:09:53;;;;;;;;;;;15.70;80.60;;;;;;5005701;28;19930;-65
2023/10/05 10:12:27;;;;;;;;;;;15.70;80.30;;;;;;5010313;28;20865;-65
2023/10/05 10:15:03;;;;;;;;;;;15.80;80.20;;;;;;5007532;28;20415;-66
2023/10/05 10:17:37;;;;;;;;;;;15.90;80.00;;;;;;5015122;28;20032;-66
2023/10/05 10:20:34;;;;;;;;;;;15.90;80.00;;;;;;5019183;28;19925;-66
2023/10/05 10:23:14;;;;;;;;;;;16.00;79.60;;;;;;5007707;28;19929;-65
2023/10/05 10:25:50;;;;;;;;;;;16.00;79.50;;;;;;5009933;28;19933;-66
2023/10/05 10:28:39;;;;;;;;;;;16.10;79.20;;;;;;5011925;28;19925;-66
2023/10/05 10:31:16;;;;;;;;;;;16.10;79.30;;;;;;5006441;28;19929;-65
2023/10/05 10:33:51;;;;;;;;;;;16.20;79.00;;;;;;5017573;28;19929;-66
2023/10/05 10:36:39;;;;;;;;;;;16.10;78.80;;;;;;4995959;28;19933;-66
2023/10/05 10:39:23;;;;;;;;;;;16.10;78.50;;;;;;4998539;28;19929;-66
2023/10/05 10:42:01;;;;;;;;;;;16.20;78.60;;;;;;5015582;28;19925;-67
2023/10/05 10:44:56;;;;;;;;;;;16.20;78.60;;;;;;5010919;28;19932;-66
2023/10/05 10:47:36;;;;;;;;;;;16.10;78.70;;;;;;5017764;28;19925;-66
2023/10/05 10:50:15;;;;;;;;;;;16.10;78.60;;;;;;5013572;28;20030;-66
2023/10/05 10:52:50;;;;;;;;;;;16.10;78.50;;;;;;5016600;28;20450;-67
2023/10/05 10:55:30;;;;;;;;;;;16.10;78.50;;;;;;5015730;28;19925;-66
2023/10/05 10:58:08;;;;;;;;;;;16.10;78.70;;;;;;5035617;28;19960;-66
2023/10/05 11:00:56;;;;;;;;;;;16.10;78.40;;;;;;5008345;28;19967;-67
2023/10/05 11:03:30;;;;;;;;;;;16.20;78.30;;;;;;5018482;28;19944;-68
2023/10/05 11:06:05;;;;;;;;;;;16.30;78.40;;;;;;5007522;28;19929;-66
2023/10/05 11:08:43;;;;;;;;;;;16.30;78.10;;;;;;5019636;28;20011;-67
2023/10/05 11:11:16;;;;;;;;;;;16.30;78.10;;;;;;5016215;28;20031;-67
2023/10/05 11:13:54;;;;;;;;;;;16.40;77.90;;;;;;5019043;28;20020;-67
2023/10/05 11:16:33;;;;;;;;;;;16.30;77.90;;;;;;5016928;28;20305;-66
2023/10/05 11:19:12;;;;;;;;;;;16.30;78.00;;;;;;5031326;28;19930;-67
2023/10/05 11:21:46;;;;;;;;;;;16.40;78.00;;;;;;5009675;28;20012;-68
2023/10/05 11:24:25;;;;;;;;;;;16.30;78.10;;;;;;5010019;28;21651;-66
2023/10/05 11:27:05;;;;;;;;;;;16.30;77.90;;;;;;4975751;28;19934;-68
2023/10/05 11:29:48;;;;;;;;;;;16.20;78.20;;;;;;5012299;28;19935;-68
2023/10/05 11:32:24;;;;;;;;;;;16.30;78.30;;;;;;5019801;28;19960;-67
2023/10/05 11:35:04;;;;;;;;;;;16.30;78.40;;;;;;5004431;28;19929;-67
2023/10/05 11:37:38;;;;;;;;;;;16.30;78.50;;;;;;5021261;28;19929;-67
2023/10/05 11:40:19;;;;;;;;;;;16.30;78.40;;;;;;5020960;28;19925;-67
2023/10/05 11:42:52;;;;;;;;;;;16.30;78.40;;;;;;5019981;28;19980;-66
2023/10/05 11:45:30;;;;;;;;;;;16.30;78.00;;;;;;5016930;28;20032;-68
2023/10/05 11:48:11;;;;;;;;;;;16.40;77.70;;;;;;5019987;28;20011;-67
2023/10/05 11:50:51;;;;;;;;;;;16.40;77.50;;;;;;5018401;28;19952;-68
2023/10/05 11:53:24;;;;;;;;;;;16.50;77.40;;;;;;5017774;28;19945;-68
2023/10/05 11:55:58;;;;;;;;;;;16.60;77.50;;;;;;5019783;28;19929;-67
2023/10/05 11:58:33;;;;;;;;;;;16.60;77.10;;;;;;5030418;28;19926;-67
2023/10/05 12:01:03;;;;;;;;;;;16.50;77.20;;;;;;5019836;28;19933;-66
2023/10/05 12:03:43;;;;;;;;;;;16.50;76.90;;;;;;5018345;28;19933;-67
2023/10/05 12:06:23;;;;;;;;;;;16.40;77.00;;;;;;5003744;28;19949;-69
2023/10/05 12:09:00;;;;;;;;;;;16.30;77.10;;;;;;5000184;28;19934;-67
2023/10/05 12:11:33;;;;;;;;;;;16.30;77.20;;;;;;5005035;28;20000;-67
2023/10/05 12:14:06;;;;;;;;;;;16.30;77.10;;;;;;5015398;28;19933;-75
2023/10/05 12:16:39;;;;;;;;;;;16.30;76.90;;;;;;5018840;28;19935;-74
2023/10/05 12:19:14;;;;;;;;;;;16.40;76.90;;;;;;5020097;28;19929;-75
2023/10/05 12:21:56;;;;;;;;;;;16.40;77.00;;;;;;5018267;28;19925;-75
2023/10/05 12:24:30;;;;;;;;;;;16.50;77.10;;;;;;5018702;28;19925;-74
2023/10/05 12:27:13;;;;;;;;;;;16.50;77.00;;;;;;5019689;28;20022;-73
2023/10/05 12:29:46;;;;;;;;;;;16.50;76.90;;;;;;5007782;28;19937;-75
2023/10/05 12:32:21;;;;;;;;;;;16.50;77.10;;;;;;4997628;28;19965;-74
2023/10/05 12:34:56;;;;;;;;;;;16.60;76.90;;;;;;5000306;28;20024;-75
2023/10/05 12:37:31;;;;;;;;;;;16.60;76.90;;;;;;4998559;28;20020;-73
2023/10/05 12:40:17;;;;;;;;;;;16.60;76.80;;;;;;4999627;28;19926;-75
2023/10/05 12:42:52;;;;;;;;;;;16.60;76.80;;;;;;5016628;28;19933;-75
2023/10/05 12:45:25;;;;;;;;;;;16.60;76.70;;;;;;5019819;28;20418;-76
2023/10/05 12:47:58;;;;;;;;;;;16.60;76.60;;;;;;5016908;28;21074;-74
2023/10/05 12:50:31;;;;;;;;;;;16.60;76.60;;;;;;5018241;28;19971;-73
2023/10/05 12:53:06;;;;;;;;;;;16.70;76.40;;;;;;5019226;28;19929;-74
2023/10/05 12:55:39;;;;;;;;;;;16.80;76.30;;;;;;4999026;28;19929;-74
2023/10/05 12:58:13;;;;;;;;;;;16.80;76.40;;;;;;4997758;28;19929;-73
2023/10/05 13:00:46;;;;;;;;;;;16.90;76.10;;;;;;4999252;28;20384;-75
2023/10/05 13:03:24;;;;;;;;;;;16.90;76.10;;;;;;4999996;28;19956;-75
2023/10/05 13:05:59;;;;;;;;;;;16.90;76.00;;;;;;4998210;28;20012;-74
2023/10/05 13:08:34;;;;;;;;;;;16.90;75.90;;;;;;4998779;28;20019;-74
2023/10/05 13:11:07;;;;;;;;;;;16.90;76.00;;;;;;5000400;28;20001;-75
2023/10/05 13:13:40;;;;;;;;;;;16.90;75.90;;;;;;4988161;28;20420;-74
2023/10/05 13:16:21;;;;;;;;;;;16.90;75.80;;;;;;5009927;28;19933;-74
2023/10/05 13:18:55;;;;;;;;;;;16.90;75.70;;;;;;5019565;28;20034;-74
2023/10/05 13:21:28;;;;;;;;;;;16.90;75.70;;;;;;5019123;28;20381;-74
2023/10/05 13:24:11;;;;;;;;;;;17.00;75.70;;;;;;5017953;28;20416;-71
2023/10/05 13:26:45;;;;;;;;;;;17.10;75.50;;;;;;5017451;28;19925;-70
2023/10/05 13:29:18;;;;;;;;;;;17.10;75.40;;;;;;5006966;28;19926;-70
2023/10/05 13:31:57;;;;;;;;;;;17.10;75.50;;;;;;4997735;28;19934;-71
2023/10/05 13:34:33;;;;;;;;;;;17.00;75.40;;;;;;4996305;28;19934;-70
2023/10/05 13:37:08;;;;;;;;;;;17.00;75.60;;;;;;4997685;28;19936;-70
2023/10/05 13:39:44;;;;;;;;;;;16.90;75.60;;;;;;4996450;28;19933;-70
2023/10/05 13:42:26;;;;;;;;;;;16.90;75.70;;;;;;4996616;28;20778;-70
2023/10/05 13:45:05;;;;;;;;;;;16.80;75.80;;;;;;5017058;28;20418;-70
2023/10/05 13:47:40;;;;;;;;;;;16.80;76.10;;;;;;5017591;28;20873;-70
2023/10/05 13:50:15;;;;;;;;;;;16.80;76.00;;;;;;5017944;28;20402;-71
2023/10/05 13:52:51;;;;;;;;;;;16.80;76.00;;;;;;5014866;28;20443;-71
2023/10/05 13:55:26;;;;;;;;;;;16.80;76.10;;;;;;5018090;28;19929;-70
2023/10/05 13:58:00;;;;;;;;;;;16.80;76.00;;;;;;4996404;28;19925;-70
2023/10/05 14:00:34;;;;;;;;;;;16.80;76.30;;;;;;5017272;28;19929;-72
2023/10/05 14:03:08;;;;;;;;;;;16.80;76.40;;;;;;5022318;28;19925;-71
2023/10/05 14:05:50;;;;;;;;;;;16.70;76.30;;;;;;5021149;28;19929;-70
2023/10/05 14:08:23;;;;;;;;;;;16.70;76.30;;;;;;5019417;28;20388;-70
2023/10/05 14:10:59;;;;;;;;;;;16.70;76.30;;;;;;5017961;28;20407;-70
2023/10/05 14:13:32;;;;;;;;;;;16.70;76.30;;;;;;5022144;28;19932;-70
2023/10/05 14:16:05;;;;;;;;;;;16.70;76.10;;;;;;5020664;28;20373;-71
2023/10/05 14:18:38;;;;;;;;;;;16.80;76.10;;;;;;5018829;28;19925;-70
2023/10/05 14:21:16;;;;;;;;;;;16.80;76.00;;;;;;5022115;28;20399;-72
2023/10/05 14:23:50;;;;;;;;;;;16.90;76.10;;;;;;5020046;28;20381;-70
2023/10/05 14:26:27;;;;;;;;;;;16.90;76.30;;;;;;5020328;28;20377;-71
2023/10/05 14:29:00;;;;;;;;;;;16.80;76.40;;;;;;5021174;28;20452;-71
2023/10/05 14:31:34;;;;;;;;;;;16.90;76.40;;;;;;5019164;28;20427;-71
2023/10/05 14:34:09;;;;;;;;;;;16.80;76.50;;;;;;5022528;28;20296;-72
2023/10/05 14:36:42;;;;;;;;;;;16.80;76.70;;;;;;5020400;28;19940;-73
2023/10/05 14:39:21;;;;;;;;;;;16.70;76.80;;;;;;5022754;28;20381;-73
2023/10/05 14:41:56;;;;;;;;;;;16.70;76.80;;;;;;5022074;28;19929;-73
2023/10/05 14:44:29;;;;;;;;;;;16.70;76.70;;;;;;5021468;28;19948;-73
2023/10/05 14:47:04;;;;;;;;;;;16.60;76.80;;;;;;5009823;28;19929;-72
2023/10/05 14:49:38;;;;;;;;;;;16.60;76.60;;;;;;5001804;28;21216;-73
2023/10/05 14:52:12;;;;;;;;;;;16.60;76.90;;;;;;5002541;28;19932;-73
2023/10/05 14:54:45;;;;;;;;;;;16.70;76.90;;;;;;5016886;28;19935;-72
2023/10/05 14:57:21;;;;;;;;;;;16.60;76.90;;;;;;5021257;28;20513;-73
2023/10/05 14:59:55;;;;;;;;;;;16.60;76.90;;;;;;5037223;28;19936;-72
2023/10/05 15:02:30;;;;;;;;;;;16.60;76.90;;;;;;5022174;28;19948;-73
2023/10/05 15:05:04;;;;;;;;;;;16.60;77.10;;;;;;5021789;28;19999;-72
2023/10/05 15:07:38;;;;;;;;;;;16.60;76.90;;;;;;5020358;28;20399;-73
2023/10/05 15:10:17;;;;;;;;;;;16.60;77.00;;;;;;5020528;28;19925;-73
2023/10/05 15:12:52;;;;;;;;;;;16.60;76.90;;;;;;5017882;28;19933;-72